createdAt,value
2022-08-14T00:00:37.347Z,75.33
2022-08-14T00:01:41.132Z,75.04
2022-08-14T00:02:47.565Z,74.77
2022-08-14T00:03:55.258Z,74.88
2022-08-14T00:05:05.461Z,74.51
2022-08-14T00:06:28.445Z,74.88
2022-08-14T00:07:18.917Z,74.50
2022-08-14T00:08:44.851Z,74.46
2022-08-14T00:09:27.494Z,74.06
2022-08-14T00:10:51.324Z,74.44
2022-08-14T00:11:39.349Z,74.81
2022-08-14T00:12:56.285Z,74.53
2022-08-14T00:14:02.097Z,74.13
2022-08-14T00:15:08.495Z,74.04
2022-08-14T00:16:13.479Z,74.42
2022-08-14T00:17:19.071Z,74.32
2022-08-14T00:18:30.611Z,74.26
2022-08-14T00:19:38.472Z,73.84
2022-08-14T00:20:46.589Z,73.92
2022-08-14T00:21:55.525Z,73.65
2022-08-14T00:23:16.289Z,73.81
2022-08-14T00:24:13.372Z,73.47
2022-08-14T00:25:19.834Z,73.39
2022-08-14T00:26:27.796Z,73.58
2022-08-14T00:27:35.350Z,73.63
2022-08-14T00:28:41.148Z,73.76
2022-08-14T00:29:47.348Z,73.67
2022-08-14T00:30:59.019Z,73.62
2022-08-14T00:32:50.318Z,73.38
2022-08-14T00:33:15.245Z,73.60
2022-08-14T00:34:37.951Z,73.59
2022-08-14T00:36:35.579Z,73.89
2022-08-14T00:36:36.954Z,73.81
2022-08-14T00:37:44.996Z,73.95
2022-08-14T00:38:50.488Z,73.67
2022-08-14T00:39:56.514Z,73.61
2022-08-14T00:41:02.415Z,73.42
2022-08-14T00:42:21.335Z,73.10
2022-08-14T00:43:17.351Z,73.19
2022-08-14T00:44:32.474Z,73.55
2022-08-14T00:45:31.137Z,73.71
2022-08-14T00:46:35.179Z,73.48
2022-08-14T00:47:43.242Z,73.69
2022-08-14T00:48:49.007Z,73.68
2022-08-14T00:49:55.983Z,73.56
2022-08-14T00:51:01.503Z,73.35
2022-08-14T00:52:04.927Z,73.47
2022-08-14T00:53:10.616Z,73.26
2022-08-14T00:54:22.071Z,74.16
2022-08-14T00:55:23.344Z,73.60
2022-08-14T00:56:31.392Z,73.35
2022-08-14T00:57:37.172Z,73.68
2022-08-14T00:58:48.257Z,73.70
2022-08-14T00:59:47.927Z,73.50
2022-08-14T01:00:57.456Z,73.45
2022-08-14T01:02:01.487Z,72.94
2022-08-14T01:03:08.464Z,72.96
2022-08-14T01:04:38.361Z,72.77
2022-08-14T01:05:26.825Z,72.71
2022-08-14T01:06:34.385Z,72.79
2022-08-14T01:07:50.369Z,73.12
2022-08-14T01:08:52.090Z,73.11
2022-08-14T01:11:11.005Z,72.93
2022-08-14T01:12:26.769Z,73.00
2022-08-14T01:13:42.167Z,73.32
2022-08-14T01:14:41.733Z,72.83
2022-08-14T01:15:58.339Z,72.85
2022-08-14T01:16:52.862Z,72.91
2022-08-14T01:18:14.917Z,72.81
2022-08-14T01:19:23.066Z,72.41
2022-08-14T01:20:47.533Z,72.28
2022-08-14T01:21:53.816Z,72.30
2022-08-14T01:22:58.322Z,72.11
2022-08-14T01:24:03.126Z,72.05
2022-08-14T01:25:11.595Z,72.05
2022-08-14T01:26:23.521Z,72.49
2022-08-14T01:27:29.887Z,72.32
2022-08-14T01:29:58.910Z,71.91
2022-08-14T01:31:00.598Z,71.95
2022-08-14T01:32:10.544Z,71.85
2022-08-14T01:33:14.939Z,71.79
2022-08-14T01:35:20.773Z,71.30
2022-08-14T01:36:03.299Z,71.12
2022-08-14T01:36:42.315Z,70.90
2022-08-14T01:37:56.333Z,71.00
2022-08-14T01:38:59.551Z,70.76
2022-08-14T01:40:03.910Z,70.71
2022-08-14T01:41:14.992Z,70.73
2022-08-14T01:42:31.558Z,71.04
2022-08-14T01:43:27.073Z,70.47
2022-08-14T01:44:34.226Z,70.54
2022-08-14T01:45:40.162Z,70.62
2022-08-14T01:47:00.978Z,70.77
2022-08-14T01:48:03.014Z,70.98
2022-08-14T01:49:07.663Z,71.07
2022-08-14T01:50:12.272Z,71.01
2022-08-14T01:51:24.040Z,71.03
2022-08-14T01:52:34.027Z,71.39
2022-08-14T01:53:36.946Z,71.63
2022-08-14T01:54:41.991Z,71.45
2022-08-14T01:55:49.740Z,71.43
2022-08-14T01:56:57.247Z,71.29
2022-08-14T01:58:19.851Z,70.89
2022-08-14T01:59:18.080Z,70.98
2022-08-14T02:00:18.268Z,70.70
2022-08-14T02:01:21.224Z,71.05
2022-08-14T02:02:28.622Z,70.74
2022-08-14T02:03:41.527Z,70.94
2022-08-14T02:04:56.776Z,71.11
2022-08-14T02:05:54.971Z,71.03
2022-08-14T02:07:01.462Z,71.02
2022-08-14T02:08:10.500Z,71.10
2022-08-14T02:09:19.340Z,71.06
2022-08-14T02:10:26.099Z,71.51
2022-08-14T02:11:29.982Z,71.26
2022-08-14T02:12:34.209Z,71.31
2022-08-14T02:13:38.722Z,71.50
2022-08-14T02:14:59.167Z,71.53
2022-08-14T02:15:55.516Z,71.66
2022-08-14T02:17:00.975Z,71.87
2022-08-14T02:18:08.092Z,72.19
2022-08-14T02:19:20.693Z,72.16
2022-08-14T02:20:27.837Z,72.23
2022-08-14T02:21:43.504Z,72.21
2022-08-14T02:22:47.739Z,72.25
2022-08-14T02:23:48.288Z,71.99
2022-08-14T02:24:54.303Z,71.99
2022-08-14T02:26:24.773Z,72.50
2022-08-14T02:28:21.978Z,72.74
2022-08-14T02:28:56.327Z,72.13
2022-08-14T02:29:30.459Z,72.28
2022-08-14T02:30:38.183Z,72.16
2022-08-14T02:31:48.738Z,73.19
2022-08-14T02:32:53.556Z,72.64
2022-08-14T02:33:56.803Z,72.99
2022-08-14T02:35:01.504Z,73.26
2022-08-14T02:37:03.768Z,73.07
2022-08-14T02:37:13.529Z,72.95
2022-08-14T02:38:29.492Z,72.98
2022-08-14T02:39:25.087Z,73.23
2022-08-14T02:40:35.625Z,73.02
2022-08-14T02:41:52.335Z,73.40
2022-08-14T02:42:55.081Z,73.60
2022-08-14T02:44:00.874Z,73.15
2022-08-14T02:45:06.636Z,72.99
2022-08-14T02:46:12.481Z,73.24
2022-08-14T02:47:22.101Z,73.18
2022-08-14T02:49:03.761Z,72.99
2022-08-14T02:49:37.342Z,72.79
2022-08-14T02:50:43.318Z,73.51
2022-08-14T02:51:50.857Z,73.11
2022-08-14T02:53:03.135Z,72.95
2022-08-14T02:54:06.102Z,72.72
2022-08-14T02:55:19.933Z,72.89
2022-08-14T02:57:13.513Z,72.94
2022-08-14T02:57:39.267Z,72.82
2022-08-14T02:58:41.849Z,72.95
2022-08-14T02:59:47.182Z,72.55
2022-08-14T03:00:51.211Z,72.99
2022-08-14T03:01:58.914Z,72.94
2022-08-14T03:03:07.879Z,73.06
2022-08-14T03:04:14.141Z,72.53
2022-08-14T03:05:20.212Z,72.50
2022-08-14T03:06:48.943Z,72.36
2022-08-14T03:07:38.250Z,72.27
2022-08-14T03:08:46.170Z,72.29
2022-08-14T03:10:27.917Z,72.21
2022-08-14T03:10:57.839Z,72.30
2022-08-14T03:12:05.920Z,71.90
2022-08-14T03:13:13.694Z,71.74
2022-08-14T03:14:15.477Z,71.76
2022-08-14T03:15:20.928Z,71.07
2022-08-14T03:16:27.799Z,71.27
2022-08-14T03:17:56.094Z,71.42
2022-08-14T03:18:48.640Z,71.41
2022-08-14T03:19:54.875Z,71.44
2022-08-14T03:21:09.248Z,71.22
2022-08-14T03:22:17.733Z,71.30
2022-08-14T03:23:21.835Z,71.06
2022-08-14T03:24:26.182Z,71.06
2022-08-14T03:25:37.835Z,70.66
2022-08-14T03:26:46.490Z,70.81
2022-08-14T03:27:58.976Z,70.45
2022-08-14T03:29:01.152Z,70.62
2022-08-14T03:30:14.553Z,70.66
2022-08-14T03:31:16.085Z,71.17
2022-08-14T03:32:20.004Z,71.17
2022-08-14T03:33:26.919Z,71.43
2022-08-14T03:34:48.399Z,71.31
2022-08-14T03:35:39.781Z,70.69
2022-08-14T03:37:38.387Z,70.89
2022-08-14T03:39:15.409Z,70.65
2022-08-14T03:39:16.102Z,70.76
2022-08-14T03:40:11.404Z,70.65
2022-08-14T03:41:22.954Z,70.66
2022-08-14T03:42:35.804Z,70.82
2022-08-14T03:43:37.755Z,70.16
2022-08-14T03:45:25.166Z,69.67
2022-08-14T03:45:49.227Z,70.16
2022-08-14T03:46:56.059Z,70.46
2022-08-14T03:48:03.035Z,70.25
2022-08-14T03:49:07.049Z,70.35
2022-08-14T03:50:14.569Z,70.88
2022-08-14T03:51:20.022Z,70.84
2022-08-14T03:52:40.536Z,70.77
2022-08-14T03:53:31.299Z,70.35
2022-08-14T03:54:35.210Z,70.41
2022-08-14T03:55:45.060Z,70.77
2022-08-14T03:56:51.233Z,70.97
2022-08-14T03:57:57.560Z,71.36
2022-08-14T03:59:17.593Z,70.92
2022-08-14T04:00:40.471Z,70.39
2022-08-14T04:01:29.165Z,70.62
2022-08-14T04:02:37.409Z,70.57
2022-08-14T04:03:44.318Z,71.27
2022-08-14T04:04:50.928Z,70.54
2022-08-14T04:05:56.587Z,70.80
2022-08-14T04:07:03.248Z,70.21
2022-08-14T04:08:23.066Z,69.90
2022-08-14T04:09:17.863Z,69.85
2022-08-14T04:10:32.081Z,70.29
2022-08-14T04:11:35.904Z,70.87
2022-08-14T04:12:42.870Z,70.81
2022-08-14T04:13:51.029Z,70.85
2022-08-14T04:14:54.617Z,70.60
2022-08-14T04:16:04.819Z,69.97
2022-08-14T04:17:10.113Z,69.77
2022-08-14T04:18:14.694Z,70.23
2022-08-14T04:19:21.031Z,70.03
2022-08-14T04:20:28.030Z,70.11
2022-08-14T04:21:40.020Z,70.05
2022-08-14T04:22:43.342Z,69.54
2022-08-14T04:23:57.525Z,69.64
2022-08-14T04:24:54.662Z,69.28
2022-08-14T04:25:58.444Z,69.07
2022-08-14T04:27:03.417Z,68.68
2022-08-14T04:28:08.287Z,69.64
2022-08-14T04:29:17.791Z,70.04
2022-08-14T04:30:25.036Z,69.96
2022-08-14T04:32:57.387Z,69.52
2022-08-14T04:32:58.748Z,69.43
2022-08-14T04:33:39.191Z,69.10
2022-08-14T04:34:42.991Z,68.54
2022-08-14T04:35:56.295Z,68.16
2022-08-14T04:37:24.523Z,67.69
2022-08-14T04:38:47.111Z,67.60
2022-08-14T04:41:30.472Z,68.09
2022-08-14T04:42:51.752Z,67.68
2022-08-14T04:43:57.190Z,67.13
2022-08-14T04:45:00.830Z,66.68
2022-08-14T04:46:11.818Z,66.51
2022-08-14T04:47:37.017Z,66.35
2022-08-14T04:48:43.269Z,66.72
2022-08-14T04:49:57.237Z,65.06
2022-08-14T04:50:58.005Z,65.45
2022-08-14T04:53:26.305Z,64.71
2022-08-14T04:54:33.344Z,65.46
2022-08-14T04:55:38.148Z,64.58
2022-08-14T04:56:41.224Z,63.30
2022-08-14T04:57:48.227Z,63.20
2022-08-14T04:59:03.747Z,63.18
2022-08-14T05:00:16.248Z,62.86
2022-08-14T05:01:22.254Z,62.97
2022-08-14T05:02:30.595Z,62.12
2022-08-14T05:03:39.093Z,61.32
2022-08-14T05:04:45.158Z,59.69
2022-08-14T05:05:50.620Z,59.62
2022-08-14T05:06:56.336Z,58.39
2022-08-14T05:08:50.538Z,57.34
2022-08-14T05:09:29.170Z,56.14
2022-08-14T05:10:32.583Z,54.14
2022-08-14T05:11:39.818Z,53.92
2022-08-14T05:13:10.990Z,53.52
2022-08-14T05:14:56.812Z,51.04
2022-08-14T05:16:03.647Z,50.66
2022-08-14T05:17:10.416Z,50.89
2022-08-14T05:18:17.298Z,51.75
2022-08-14T05:19:27.055Z,51.18
2022-08-14T05:21:05.013Z,50.26
2022-08-14T05:21:59.395Z,49.86
2022-08-14T05:22:45.470Z,49.64
2022-08-14T05:23:48.921Z,48.67
2022-08-14T05:24:53.240Z,48.06
2022-08-14T05:26:04.056Z,47.94
2022-08-14T05:27:11.404Z,47.50
2022-08-14T05:28:21.271Z,47.30
2022-08-14T05:29:27.493Z,48.32
2022-08-14T05:30:34.052Z,48.96
2022-08-14T05:31:42.701Z,49.49
2022-08-14T05:32:46.827Z,50.41
2022-08-14T05:33:56.560Z,50.39
2022-08-14T05:35:00.184Z,48.99
2022-08-14T05:36:07.248Z,49.57
2022-08-14T05:37:19.967Z,51.04
2022-08-14T05:38:30.966Z,52.22
2022-08-14T05:39:32.477Z,53.34
2022-08-14T05:40:35.941Z,54.08
2022-08-14T05:41:53.511Z,54.28
2022-08-14T05:42:52.864Z,54.31
2022-08-14T05:43:55.366Z,53.99
2022-08-14T05:44:58.836Z,53.90
2022-08-14T05:46:09.729Z,54.30
2022-08-14T05:47:14.468Z,54.20
2022-08-14T05:48:32.685Z,54.79
2022-08-14T05:49:33.036Z,54.95
2022-08-14T05:50:38.269Z,54.36
2022-08-14T05:51:48.369Z,54.65
2022-08-14T05:53:01.548Z,54.92
2022-08-14T05:55:22.907Z,55.82
2022-08-14T05:56:28.424Z,55.20
2022-08-14T05:57:33.034Z,55.83
2022-08-14T05:58:41.439Z,56.28
2022-08-14T05:59:43.121Z,56.22
2022-08-14T06:00:49.347Z,56.70
2022-08-14T06:01:53.861Z,56.08
2022-08-14T06:03:04.161Z,55.79
2022-08-14T06:04:07.379Z,55.45
2022-08-14T06:05:11.976Z,55.82
2022-08-14T06:06:19.224Z,55.81
2022-08-14T06:07:21.965Z,55.74
2022-08-14T06:08:36.701Z,55.35
2022-08-14T06:09:40.643Z,55.13
2022-08-14T06:10:45.658Z,54.79
2022-08-14T06:11:51.056Z,54.65
2022-08-14T06:13:01.037Z,54.15
2022-08-14T06:14:04.508Z,54.31
2022-08-14T06:15:11.201Z,53.61
2022-08-14T06:16:18.930Z,53.57
2022-08-14T06:17:25.932Z,53.62
2022-08-14T06:18:31.987Z,53.83
2022-08-14T06:19:35.310Z,53.53
2022-08-14T06:20:39.999Z,53.47
2022-08-14T06:21:43.890Z,52.29
2022-08-14T06:22:49.741Z,51.53
2022-08-14T06:23:53.399Z,51.57
2022-08-14T06:24:57.727Z,51.66
2022-08-14T06:26:01.340Z,51.02
2022-08-14T06:27:10.797Z,50.41
2022-08-14T06:28:27.154Z,49.17
2022-08-14T06:29:32.009Z,48.52
2022-08-14T06:30:46.118Z,48.84
2022-08-14T06:31:39.828Z,49.35
2022-08-14T06:32:45.756Z,49.26
2022-08-14T06:35:03.458Z,49.38
2022-08-14T06:35:04.398Z,49.24
2022-08-14T06:36:05.516Z,49.12
2022-08-14T06:37:08.697Z,49.05
2022-08-14T06:38:23.535Z,48.49
2022-08-14T06:40:43.040Z,45.84
2022-08-14T06:41:57.626Z,44.15
2022-08-14T06:42:51.572Z,43.35
2022-08-14T06:44:02.282Z,42.35
2022-08-14T06:45:08.603Z,42.94
2022-08-14T06:46:12.921Z,42.52
2022-08-14T06:47:17.556Z,40.71
2022-08-14T06:48:25.598Z,40.14
2022-08-14T06:49:40.168Z,41.93
2022-08-14T06:50:39.873Z,42.94
2022-08-14T06:51:45.098Z,44.57
2022-08-14T06:52:50.283Z,46.06
2022-08-14T06:53:55.982Z,46.37
2022-08-14T06:55:01.469Z,46.10
2022-08-14T06:56:08.558Z,47.10
2022-08-14T06:57:14.455Z,46.45
2022-08-14T06:58:24.721Z,46.44
2022-08-14T06:59:29.365Z,46.98
2022-08-14T07:00:34.232Z,47.21
2022-08-14T07:01:58.876Z,45.39
2022-08-14T07:03:21.830Z,40.40
2022-08-14T07:04:43.308Z,35.10
2022-08-14T07:05:55.804Z,32.04
2022-08-14T07:06:59.012Z,31.48
2022-08-14T07:09:16.835Z,29.86
2022-08-14T07:10:25.342Z,28.73
2022-08-14T07:11:27.765Z,27.86
2022-08-14T07:13:01.999Z,27.53
2022-08-14T07:13:40.740Z,27.79
2022-08-14T07:14:45.721Z,28.08
2022-08-14T07:15:55.100Z,27.98
2022-08-14T07:17:00.332Z,26.65
2022-08-14T07:18:08.716Z,25.77
2022-08-14T07:19:11.416Z,26.08
2022-08-14T07:20:20.102Z,26.89
2022-08-14T07:21:26.159Z,29.37
2022-08-14T07:22:32.895Z,29.01
2022-08-14T07:23:40.214Z,28.62
2022-08-14T07:26:03.811Z,27.67
2022-08-14T07:27:14.740Z,27.81
2022-08-14T07:28:24.685Z,27.31
2022-08-14T07:29:29.902Z,27.37
2022-08-14T07:30:35.890Z,27.10
2022-08-14T07:31:44.145Z,27.03
2022-08-14T07:32:51.397Z,26.72
2022-08-14T07:33:54.308Z,26.98
2022-08-14T07:34:57.736Z,26.41
2022-08-14T07:36:26.576Z,25.94
2022-08-14T07:37:11.792Z,26.01
2022-08-14T07:38:24.488Z,26.14
2022-08-14T07:39:28.736Z,26.52
2022-08-14T07:40:36.176Z,27.37
2022-08-14T07:41:47.514Z,27.28
2022-08-14T07:42:52.756Z,27.59
2022-08-14T07:43:57.701Z,27.87
2022-08-14T07:45:04.609Z,27.46
2022-08-14T07:46:09.362Z,27.92
2022-08-14T07:47:13.740Z,28.16
2022-08-14T07:48:17.592Z,27.59
2022-08-14T07:49:24.202Z,26.88
2022-08-14T07:50:40.308Z,27.86
2022-08-14T07:51:50.751Z,27.72
2022-08-14T07:52:54.907Z,27.95
2022-08-14T07:53:59.976Z,28.30
2022-08-14T07:55:08.633Z,27.92
2022-08-14T07:56:44.250Z,28.38
2022-08-14T07:57:22.459Z,29.54
2022-08-14T07:58:31.645Z,29.12
2022-08-14T07:59:41.028Z,28.93
2022-08-14T08:00:37.366Z,29.05
2022-08-14T08:01:48.369Z,29.40
2022-08-14T08:02:55.899Z,29.24
2022-08-14T08:04:04.627Z,29.28
2022-08-14T08:05:12.532Z,29.50
2022-08-14T08:06:20.348Z,30.18
2022-08-14T08:07:30.099Z,29.60
2022-08-14T08:08:36.021Z,29.68
2022-08-14T08:09:48.163Z,29.68
2022-08-14T08:11:02.923Z,29.62
2022-08-14T08:12:09.378Z,30.53
2022-08-14T08:13:16.487Z,31.21
2022-08-14T08:14:21.612Z,31.49
2022-08-14T08:16:38.750Z,31.22
2022-08-14T08:17:53.671Z,32.56
2022-08-14T08:18:48.534Z,32.34
2022-08-14T08:19:52.225Z,32.80
2022-08-14T08:20:59.357Z,33.34
2022-08-14T08:22:04.655Z,33.61
2022-08-14T08:23:20.682Z,33.87
2022-08-14T08:24:21.094Z,33.28
2022-08-14T08:25:26.497Z,33.81
2022-08-14T08:26:32.627Z,33.17
2022-08-14T08:27:39.138Z,33.50
2022-08-14T08:28:44.777Z,33.23
2022-08-14T08:29:50.766Z,33.85
2022-08-14T08:31:01.577Z,34.82
2022-08-14T08:32:06.244Z,36.63
2022-08-14T08:33:12.267Z,36.49
2022-08-14T08:34:18.226Z,36.99
2022-08-14T08:35:24.132Z,35.94
2022-08-14T08:36:29.926Z,37.09
2022-08-14T08:37:40.023Z,37.69
2022-08-14T08:39:18.185Z,36.40
2022-08-14T08:40:02.333Z,35.15
2022-08-14T08:41:02.008Z,34.43
2022-08-14T08:42:07.019Z,33.74
2022-08-14T08:43:35.470Z,34.19
2022-08-14T08:44:40.607Z,34.51
2022-08-14T08:47:11.488Z,34.91
2022-08-14T08:48:18.085Z,34.75
2022-08-14T08:49:21.031Z,34.17
2022-08-14T08:51:43.026Z,33.02
2022-08-14T08:52:59.419Z,32.98
2022-08-14T08:54:18.252Z,32.74
2022-08-14T08:55:19.707Z,33.80
2022-08-14T08:56:46.124Z,33.19
2022-08-14T08:57:55.188Z,34.12
2022-08-14T08:58:58.741Z,34.07
2022-08-14T09:00:03.137Z,34.29
2022-08-14T09:01:09.250Z,34.63
2022-08-14T09:02:21.227Z,35.36
2022-08-14T09:03:30.340Z,35.28
2022-08-14T09:04:45.264Z,35.80
2022-08-14T09:06:53.658Z,36.16
2022-08-14T09:07:13.243Z,36.70
2022-08-14T09:09:34.551Z,36.25
2022-08-14T09:10:40.489Z,35.60
2022-08-14T09:11:45.704Z,34.96
2022-08-14T09:12:53.216Z,33.88
2022-08-14T09:13:58.671Z,34.49
2022-08-14T09:15:12.040Z,35.56
2022-08-14T09:16:19.849Z,35.41
2022-08-14T09:17:25.860Z,34.77
2022-08-14T09:18:29.435Z,35.69
2022-08-14T09:19:36.286Z,37.73
2022-08-14T09:20:43.903Z,37.73
2022-08-14T09:21:48.481Z,37.41
2022-08-14T09:22:56.830Z,37.86
2022-08-14T09:24:28.867Z,37.88
2022-08-14T09:25:08.928Z,38.37
2022-08-14T09:26:21.035Z,37.83
2022-08-14T09:27:22.471Z,38.10
2022-08-14T09:28:26.820Z,37.99
2022-08-14T09:29:32.230Z,37.32
2022-08-14T09:30:39.501Z,37.53
2022-08-14T09:31:53.371Z,37.56
2022-08-14T09:33:10.961Z,37.18
2022-08-14T09:34:28.230Z,37.23
2022-08-14T09:35:42.615Z,36.06
2022-08-14T09:36:55.058Z,36.25
2022-08-14T09:40:03.676Z,35.30
2022-08-14T09:41:36.815Z,36.10
2022-08-14T09:42:50.368Z,36.40
2022-08-14T09:44:25.222Z,36.10
2022-08-14T09:45:53.567Z,36.11
2022-08-14T09:46:57.949Z,37.27
2022-08-14T09:48:06.655Z,36.42
2022-08-14T09:49:17.031Z,36.23
2022-08-14T09:50:33.387Z,35.35
2022-08-14T09:51:44.928Z,35.98
2022-08-14T09:52:57.856Z,36.07
2022-08-14T09:54:19.207Z,37.31
2022-08-14T09:55:22.458Z,37.40
2022-08-14T09:56:30.888Z,37.24
2022-08-14T09:57:33.416Z,36.99
2022-08-14T09:58:46.534Z,37.35
2022-08-14T09:59:50.394Z,37.64
2022-08-14T10:01:02.031Z,37.71
2022-08-14T10:02:24.812Z,37.12
2022-08-14T10:03:34.326Z,36.46
2022-08-14T10:05:49.153Z,36.64
2022-08-14T10:06:54.072Z,36.51
2022-08-14T10:08:01.279Z,36.21
2022-08-14T10:09:12.018Z,36.73
2022-08-14T10:10:23.276Z,36.93
2022-08-14T10:11:25.202Z,37.28
2022-08-14T10:12:58.310Z,38.45
2022-08-14T10:14:05.219Z,39.14
2022-08-14T10:15:22.639Z,38.80
2022-08-14T10:16:33.708Z,39.51
2022-08-14T10:17:38.873Z,39.12
2022-08-14T10:18:42.495Z,38.86
2022-08-14T10:19:49.297Z,38.57
2022-08-14T10:21:00.654Z,38.13
2022-08-14T10:23:13.183Z,37.50
2022-08-14T10:23:20.950Z,37.04
2022-08-14T10:25:51.133Z,37.87
2022-08-14T10:27:01.101Z,38.50
2022-08-14T10:28:04.942Z,37.66
2022-08-14T10:29:19.802Z,37.97
2022-08-14T10:30:25.715Z,37.97
2022-08-14T10:31:43.145Z,38.27
2022-08-14T10:32:51.474Z,39.06
2022-08-14T10:34:12.892Z,38.42
2022-08-14T10:35:16.399Z,38.22
2022-08-14T10:36:37.260Z,38.09
2022-08-14T10:37:45.897Z,38.23
2022-08-14T10:38:54.623Z,38.09
2022-08-14T10:40:10.252Z,38.67
2022-08-14T10:41:17.294Z,37.94
2022-08-14T10:42:22.717Z,37.75
2022-08-14T10:43:31.846Z,36.76
2022-08-14T10:44:38.513Z,36.40
2022-08-14T10:45:59.735Z,37.35
2022-08-14T10:47:41.475Z,37.81
2022-08-14T10:48:24.568Z,37.81
2022-08-14T10:49:25.672Z,38.05
2022-08-14T10:50:38.994Z,38.64
2022-08-14T10:51:43.787Z,38.50
2022-08-14T10:52:53.660Z,37.96
2022-08-14T10:53:58.373Z,37.19
2022-08-14T10:55:14.599Z,37.77
2022-08-14T10:56:32.210Z,37.85
2022-08-14T10:57:32.170Z,37.91
2022-08-14T10:58:38.924Z,38.96
2022-08-14T10:59:46.043Z,39.04
2022-08-14T11:00:59.925Z,41.02
2022-08-14T11:02:04.315Z,40.69
2022-08-14T11:03:20.024Z,39.51
2022-08-14T11:04:27.663Z,39.64
2022-08-14T11:05:54.997Z,39.06
2022-08-14T11:06:57.291Z,39.13
2022-08-14T11:08:09.217Z,38.91
2022-08-14T11:09:13.711Z,39.57
2022-08-14T11:10:19.507Z,39.31
2022-08-14T11:11:26.171Z,38.89
2022-08-14T11:12:47.439Z,37.89
2022-08-14T11:13:50.807Z,38.49
2022-08-14T11:14:59.765Z,37.88
2022-08-14T11:16:05.755Z,37.99
2022-08-14T11:17:11.192Z,38.60
2022-08-14T11:18:20.593Z,38.39
2022-08-14T11:19:26.894Z,37.55
2022-08-14T11:20:31.736Z,37.66
2022-08-14T11:21:40.694Z,37.19
2022-08-14T11:22:56.094Z,36.54
2022-08-14T11:23:59.642Z,36.23
2022-08-14T11:25:06.613Z,36.55
2022-08-14T11:26:11.715Z,36.33
2022-08-14T11:27:18.974Z,36.96
2022-08-14T11:28:47.356Z,36.08
2022-08-14T11:29:38.178Z,36.11
2022-08-14T11:56:13.652Z,39.77
2022-08-14T11:57:22.891Z,40.16
2022-08-14T11:58:34.655Z,40.36
2022-08-14T11:59:44.258Z,40.89
2022-08-14T12:00:56.326Z,41.43
2022-08-14T12:03:00.706Z,41.75
2022-08-14T12:03:37.205Z,41.90
2022-08-14T12:04:33.109Z,41.92
2022-08-14T12:05:40.498Z,42.65
2022-08-14T12:06:53.526Z,42.48
2022-08-14T12:07:57.922Z,42.89
2022-08-14T12:09:00.957Z,43.28
2022-08-14T12:10:27.405Z,43.15
2022-08-14T12:11:14.481Z,44.27
2022-08-14T12:12:35.704Z,44.49
2022-08-14T12:13:36.837Z,44.07
2022-08-14T12:14:54.934Z,44.19
2022-08-14T12:16:20.502Z,44.54
2022-08-14T12:17:24.246Z,44.95
2022-08-14T12:18:42.107Z,45.08
2022-08-14T12:19:56.471Z,45.38
2022-08-14T12:21:23.741Z,45.91
2022-08-14T12:22:35.071Z,46.30
2022-08-14T12:23:43.126Z,46.16
2022-08-14T12:24:53.129Z,46.31
2022-08-14T12:26:32.038Z,46.89
2022-08-14T12:27:16.909Z,47.30
2022-08-14T12:29:32.205Z,47.40
2022-08-14T12:30:43.707Z,47.22
2022-08-14T12:31:51.653Z,47.38
2022-08-14T12:33:11.544Z,48.34
2022-08-14T12:34:22.876Z,47.62
2022-08-14T12:35:44.990Z,47.75
2022-08-14T12:36:48.837Z,46.74
2022-08-14T12:37:52.644Z,46.80
2022-08-14T12:38:56.128Z,46.17
2022-08-14T12:40:20.651Z,46.03
2022-08-14T12:41:28.119Z,45.39
2022-08-14T12:42:41.802Z,46.37
2022-08-14T12:43:52.719Z,46.82
2022-08-14T12:44:57.893Z,46.40
2022-08-14T12:46:02.516Z,46.34
2022-08-14T12:47:15.010Z,46.70
2022-08-14T12:48:21.675Z,46.95
2022-08-14T12:49:25.816Z,47.14
2022-08-14T12:50:38.888Z,47.23
2022-08-14T12:51:47.060Z,48.07
2022-08-14T12:53:02.197Z,49.46
2022-08-14T12:53:59.509Z,48.99
2022-08-14T12:55:08.627Z,48.47
2022-08-14T12:56:33.134Z,48.36
2022-08-14T12:57:37.462Z,48.24
2022-08-14T12:58:51.642Z,48.33
2022-08-14T12:59:50.693Z,48.63
2022-08-14T13:01:16.370Z,48.81
2022-08-14T13:02:11.535Z,49.58
2022-08-14T13:03:26.996Z,49.37
2022-08-14T13:04:31.872Z,49.53
2022-08-14T13:05:40.134Z,49.74
2022-08-14T13:06:50.827Z,51.01
2022-08-14T13:07:55.984Z,50.88
2022-08-14T13:09:02.429Z,51.33
2022-08-14T13:10:47.604Z,51.80
2022-08-14T13:11:17.913Z,52.25
2022-08-14T13:12:43.076Z,51.95
2022-08-14T13:13:48.962Z,52.11
2022-08-14T13:14:54.733Z,52.24
2022-08-14T13:16:02.652Z,52.86
2022-08-14T13:17:13.470Z,52.23
2022-08-14T13:18:17.199Z,52.51
2022-08-14T13:19:24.447Z,52.15
2022-08-14T13:20:30.748Z,52.64
2022-08-14T13:21:58.861Z,52.07
2022-08-14T13:22:46.567Z,52.01
2022-08-14T13:23:52.927Z,52.19
2022-08-14T13:24:58.600Z,52.44
2022-08-14T13:26:02.844Z,52.48
2022-08-14T13:27:11.415Z,52.77
2022-08-14T13:28:30.123Z,53.50
2022-08-14T13:29:29.641Z,54.63
2022-08-14T13:30:38.952Z,56.36
2022-08-14T13:31:47.824Z,56.25
2022-08-14T13:32:59.575Z,55.69
2022-08-14T13:34:06.992Z,56.80
2022-08-14T13:35:17.485Z,56.77
2022-08-14T13:36:23.941Z,56.00
2022-08-14T13:37:28.462Z,55.67
2022-08-14T13:38:33.120Z,54.91
2022-08-14T13:39:38.095Z,55.54
2022-08-14T13:40:43.780Z,55.16
2022-08-14T13:41:55.952Z,54.71
2022-08-14T13:42:57.652Z,53.61
2022-08-14T13:44:02.031Z,52.05
2022-08-14T13:45:08.678Z,52.94
2022-08-14T13:46:15.969Z,52.60
2022-08-14T13:47:22.754Z,52.73
2022-08-14T13:49:56.742Z,52.46
2022-08-14T13:50:45.374Z,53.38
2022-08-14T13:51:54.402Z,52.59
2022-08-14T13:53:02.247Z,52.25
2022-08-14T13:54:11.111Z,52.62
2022-08-14T13:55:18.647Z,53.01
2022-08-14T13:56:36.217Z,53.29
2022-08-14T13:57:49.632Z,53.08
2022-08-14T13:58:54.800Z,53.47
2022-08-14T14:00:06.079Z,54.48
2022-08-14T14:01:19.252Z,53.93
2022-08-14T14:02:34.070Z,54.99
2022-08-14T14:03:36.970Z,54.06
2022-08-14T14:04:46.382Z,54.53
2022-08-14T14:05:54.283Z,54.64
2022-08-14T14:07:10.501Z,54.64
2022-08-14T14:08:46.565Z,55.46
2022-08-14T14:09:32.445Z,55.92
2022-08-14T14:10:39.282Z,55.86
2022-08-14T14:11:44.171Z,56.11
2022-08-14T14:12:56.257Z,55.98
2022-08-14T14:14:00.830Z,55.92
2022-08-14T14:15:07.285Z,56.17
2022-08-14T14:16:26.135Z,56.66
2022-08-14T14:17:29.054Z,56.66
2022-08-14T14:18:37.508Z,56.26
2022-08-14T14:19:47.958Z,55.92
2022-08-14T14:20:52.584Z,55.97
2022-08-14T14:21:58.810Z,55.35
2022-08-14T14:23:11.578Z,56.29
2022-08-14T14:24:14.903Z,55.98
2022-08-14T14:25:19.440Z,55.37
2022-08-14T14:26:26.853Z,55.23
2022-08-14T14:27:41.494Z,54.88
2022-08-14T14:28:43.521Z,54.70
2022-08-14T14:29:55.558Z,55.13
2022-08-14T14:31:06.680Z,54.34
2022-08-14T14:32:17.437Z,53.96
2022-08-14T14:33:44.793Z,54.27
2022-08-14T14:34:30.005Z,54.18
2022-08-14T14:35:39.565Z,52.83
2022-08-14T14:36:49.902Z,53.31
2022-08-14T14:37:52.858Z,53.04
2022-08-14T14:40:52.817Z,53.24
2022-08-14T14:41:30.761Z,53.29
2022-08-14T14:42:38.964Z,54.52
2022-08-14T14:43:46.324Z,52.94
2022-08-14T14:44:56.545Z,53.06
2022-08-14T14:46:00.787Z,53.56
2022-08-14T14:47:23.290Z,52.57
2022-08-14T14:48:31.063Z,51.84
2022-08-14T14:49:51.595Z,52.53
2022-08-14T14:50:42.377Z,52.22
2022-08-14T14:51:54.650Z,52.55
2022-08-14T14:53:12.445Z,52.80
2022-08-14T14:54:08.351Z,52.60
2022-08-14T14:56:49.377Z,52.50
2022-08-14T14:57:35.066Z,53.09
2022-08-14T14:58:41.107Z,52.91
2022-08-14T14:59:47.779Z,52.55
2022-08-14T15:00:59.671Z,52.08
2022-08-14T15:02:09.612Z,51.88
2022-08-14T15:03:15.490Z,52.04
2022-08-14T15:04:21.390Z,52.39
2022-08-14T15:05:28.487Z,52.43
2022-08-14T15:06:33.579Z,53.09
2022-08-14T15:07:39.223Z,53.11
2022-08-14T15:08:56.716Z,52.62
2022-08-14T15:09:48.548Z,52.96
2022-08-14T15:10:53.637Z,53.12
2022-08-14T15:11:58.114Z,52.97
2022-08-14T15:13:04.307Z,53.44
2022-08-14T15:14:55.246Z,52.80
2022-08-14T15:15:16.411Z,52.82
2022-08-14T15:16:22.404Z,52.48
2022-08-14T15:17:35.353Z,52.88
2022-08-14T15:18:46.415Z,53.07
2022-08-14T15:19:56.765Z,53.43
2022-08-14T15:21:03.002Z,52.81
2022-08-14T15:22:08.206Z,53.41
2022-08-14T15:23:13.489Z,53.55
2022-08-14T15:24:24.456Z,53.72
2022-08-14T15:25:23.553Z,54.04
2022-08-14T15:26:31.634Z,53.96
2022-08-14T15:27:33.838Z,54.33
2022-08-14T15:28:41.176Z,53.89
2022-08-14T15:30:09.884Z,53.94